Eems Trader — V2DE3 — position and weather

sailwx.info

Track history (hours):
 
Tides and Currents Weather Stations Pressure Air Temp Water Temp Dewpoint Dewpoint Depression Visibility Wind Speed Wind Dir Waves Ship Positions

Eems Trader

Last reported at 2016-Jul-18 20:14 UTC. Time now 2016-Jul-26 19:57 UTC.
Position N 49°31' E 000°44'.

Length 89 m; draft 4.5 m.

Type: Cargo ship. MMSI: 305182000.

Date/timePositionNaut miles runAvg speedWind from/ knotsBaromVisibWave heightAir tempDewpointWater temp
2016-Jul-18 20:14N 49°31' E 000°44'6 9.3
2016-Jul-18 19:33N 49°26' E 000°38'9 8.7
2016-Jul-18 18:33N 49°27' E 000°25'1110.6
2016-Jul-18 17:34N 49°26' E 000°09'8 8.0
2016-Jul-18 16:34N 49°28' W 000°03'2 1.9
2016-Jul-18 15:33N 49°28' W 000°06'0 0.0
2016-Jul-18 14:33N 49°28' W 000°06'0 0.0
2016-Jul-18 13:33N 49°28' W 000°06'0 0.0
2016-Jul-18 12:33N 49°28' W 000°06'0 0.0
2016-Jul-18 11:33N 49°28' W 000°06'0 0.0
2016-Jul-18 10:33N 49°28' W 000°06'0 0.1
2016-Jul-18 09:33N 49°28' W 000°06'0 0.0
2016-Jul-18 08:33N 49°28' W 000°06'0 0.0
2016-Jul-18 07:33N 49°28' W 000°06'0 0.0
2016-Jul-18 06:33N 49°28' W 000°06'0 0.0
2016-Jul-18 05:33N 49°28' W 000°06'0 0.1
2016-Jul-18 04:33N 49°28' W 000°06'0 0.0
2016-Jul-18 03:33N 49°28' W 000°06'1 1.2
2016-Jul-18 02:33N 49°29' W 000°08'6 6.3
2016-Jul-18 01:33N 49°32' W 000°16'7 6.7
2016-Jul-18 00:33N 49°34' W 000°26'7 6.7
2016-Jul-17 23:33N 49°37' W 000°35'7 6.7
2016-Jul-17 22:33N 49°40' W 000°45'7 7.3
2016-Jul-17 21:33N 49°43' W 000°55'8 8.3
2016-Jul-17 20:33N 49°46' W 001°07'10 9.8
2016-Jul-17 19:33N 49°51' W 001°20'1010.4
2016-Jul-17 18:33N 49°52' W 001°36'1211.3
2016-Jul-17 17:27N 49°53' W 001°55'106 7.6
2016-Jul-17 03:33N 49°14' W 004°27'9 8.9
2016-Jul-17 02:33N 49°10' W 004°39'9 8.9
2016-Jul-17 01:33N 49°06' W 004°51'9 8.8
2016-Jul-17 00:33N 49°01' W 005°02'9 8.7
2016-Jul-16 23:33N 48°57' W 005°14'9 8.7
2016-Jul-16 22:33N 48°53' W 005°26'8 8.1
2016-Jul-16 21:33N 48°48' W 005°35'8 7.7
2016-Jul-16 20:33N 48°41' W 005°41'8 7.5
2016-Jul-16 19:33N 48°34' W 005°46'7 7.2
2016-Jul-16 18:33N 48°28' W 005°51'124 8.2
2016-Jul-16 03:27N 46°37' W 007°12'8 8.5
2016-Jul-16 02:33N 46°30' W 007°17'8 8.2
2016-Jul-16 01:33N 46°23' W 007°22'  
2016-Jul-12 15:32N 38°47' W 009°50'8 6.1
2016-Jul-12 14:15N 38°39' W 009°49'5 6.0
2016-Jul-12 13:27N 38°35' W 009°48'5 6.1
2016-Jul-12 12:33N 38°29' W 009°46'7 6.7
2016-Jul-12 11:33N 38°23' W 009°44'7 6.8
2016-Jul-12 10:32N 38°16' W 009°42'7 7.1
2016-Jul-12 09:30N 38°09' W 009°41'7 7.3
2016-Jul-12 08:32N 38°02' W 009°38'10 6.9
2016-Jul-12 07:07N 37°52' W 009°35'4 6.6
2016-Jul-12 06:31N 37°49' W 009°34'7 6.4
2016-Jul-12 05:26N 37°42' W 009°32'33 6.2
2016-Jul-12 00:06N 37°10' W 009°23'3 5.6
2016-Jul-11 23:33N 37°07' W 009°22'36 5.1
2016-Jul-11 16:31N 36°40' W 008°52'162 7.4
2016-Jul-10 18:33N 35°58' W 005°38'8 8.2
2016-Jul-10 17:33N 36°00' W 005°28'7 7.2
2016-Jul-10 16:33N 36°06' W 005°23'3 3.0
2016-Jul-10 15:33N 36°09' W 005°22'0 0.0
2016-Jul-10 14:33N 36°09' W 005°22'0 0.0
2016-Jul-10 13:33N 36°09' W 005°22'0 0.2
2016-Jul-10 12:33N 36°09' W 005°22'237 8.3
2016-Jul-09 08:06N 36°40' W 000°30'5 8.3
2016-Jul-09 07:29N 36°41' W 000°24'7 7.7
2016-Jul-09 06:33N 36°42' W 000°15'16 8.0
2016-Jul-09 04:33N 36°44' E 000°05'9 8.7
2016-Jul-09 03:33N 36°46' E 000°16'10 8.6
2016-Jul-09 02:22N 36°47' E 000°28'7 8.5
2016-Jul-09 01:34N 36°48' E 000°37'17 8.5
2016-Jul-08 23:33N 36°51' E 000°58'8 8.4
2016-Jul-08 22:33N 36°53' E 001°08'8 8.5
2016-Jul-08 21:33N 36°54' E 001°19'8 8.2
2016-Jul-08 20:33N 36°55' E 001°29'  
Track history (hours):
 
Tides and Currents Weather Stations Pressure Air Temp Water Temp Dewpoint Dewpoint Depression Visibility Wind Speed Wind Dir Waves Ship Positions

Eems Trader

Last reported at 2016-Jul-18 20:14 UTC. Time now 2016-Jul-26 19:57 UTC.
Position N 49°31' E 000°44'.

Length 89 m; draft 4.5 m.

Type: Cargo ship. MMSI: 305182000.

Date/timePositionNaut miles runAvg speedWind from/ knotsBaromVisibWave heightAir tempDewpointWater temp
2016-Jul-18 20:14N 49°31' E 000°44'6 9.3
2016-Jul-18 19:33N 49°26' E 000°38'9 8.7
2016-Jul-18 18:33N 49°27' E 000°25'1110.6
2016-Jul-18 17:34N 49°26' E 000°09'8 8.0
2016-Jul-18 16:34N 49°28' W 000°03'2 1.9
2016-Jul-18 15:33N 49°28' W 000°06'0 0.0
2016-Jul-18 14:33N 49°28' W 000°06'0 0.0
2016-Jul-18 13:33N 49°28' W 000°06'0 0.0
2016-Jul-18 12:33N 49°28' W 000°06'0 0.0
2016-Jul-18 11:33N 49°28' W 000°06'0 0.0
2016-Jul-18 10:33N 49°28' W 000°06'0 0.1
2016-Jul-18 09:33N 49°28' W 000°06'0 0.0
2016-Jul-18 08:33N 49°28' W 000°06'0 0.0
2016-Jul-18 07:33N 49°28' W 000°06'0 0.0
2016-Jul-18 06:33N 49°28' W 000°06'0 0.0
2016-Jul-18 05:33N 49°28' W 000°06'0 0.1
2016-Jul-18 04:33N 49°28' W 000°06'0 0.0
2016-Jul-18 03:33N 49°28' W 000°06'1 1.2
2016-Jul-18 02:33N 49°29' W 000°08'6 6.3
2016-Jul-18 01:33N 49°32' W 000°16'7 6.7
2016-Jul-18 00:33N 49°34' W 000°26'7 6.7
2016-Jul-17 23:33N 49°37' W 000°35'7 6.7
2016-Jul-17 22:33N 49°40' W 000°45'7 7.3
2016-Jul-17 21:33N 49°43' W 000°55'8 8.3
2016-Jul-17 20:33N 49°46' W 001°07'10 9.8
2016-Jul-17 19:33N 49°51' W 001°20'1010.4
2016-Jul-17 18:33N 49°52' W 001°36'1211.3
2016-Jul-17 17:27N 49°53' W 001°55'106 7.6
2016-Jul-17 03:33N 49°14' W 004°27'9 8.9
2016-Jul-17 02:33N 49°10' W 004°39'9 8.9
2016-Jul-17 01:33N 49°06' W 004°51'9 8.8
2016-Jul-17 00:33N 49°01' W 005°02'9 8.7
2016-Jul-16 23:33N 48°57' W 005°14'9 8.7
2016-Jul-16 22:33N 48°53' W 005°26'8 8.1
2016-Jul-16 21:33N 48°48' W 005°35'8 7.7
2016-Jul-16 20:33N 48°41' W 005°41'8 7.5
2016-Jul-16 19:33N 48°34' W 005°46'7 7.2
2016-Jul-16 18:33N 48°28' W 005°51'124 8.2
2016-Jul-16 03:27N 46°37' W 007°12'8 8.5
2016-Jul-16 02:33N 46°30' W 007°17'8 8.2
2016-Jul-16 01:33N 46°23' W 007°22'  
2016-Jul-12 15:32N 38°47' W 009°50'8 6.1
2016-Jul-12 14:15N 38°39' W 009°49'5 6.0
2016-Jul-12 13:27N 38°35' W 009°48'5 6.1
2016-Jul-12 12:33N 38°29' W 009°46'7 6.7
2016-Jul-12 11:33N 38°23' W 009°44'7 6.8
2016-Jul-12 10:32N 38°16' W 009°42'7 7.1
2016-Jul-12 09:30N 38°09' W 009°41'7 7.3
2016-Jul-12 08:32N 38°02' W 009°38'10 6.9
2016-Jul-12 07:07N 37°52' W 009°35'4 6.6
2016-Jul-12 06:31N 37°49' W 009°34'7 6.4
2016-Jul-12 05:26N 37°42' W 009°32'33 6.2
2016-Jul-12 00:06N 37°10' W 009°23'3 5.6
2016-Jul-11 23:33N 37°07' W 009°22'36 5.1
2016-Jul-11 16:31N 36°40' W 008°52'162 7.4
2016-Jul-10 18:33N 35°58' W 005°38'8 8.2
2016-Jul-10 17:33N 36°00' W 005°28'7 7.2
2016-Jul-10 16:33N 36°06' W 005°23'3 3.0
2016-Jul-10 15:33N 36°09' W 005°22'0 0.0
2016-Jul-10 14:33N 36°09' W 005°22'0 0.0
2016-Jul-10 13:33N 36°09' W 005°22'0 0.2
2016-Jul-10 12:33N 36°09' W 005°22'237 8.3
2016-Jul-09 08:06N 36°40' W 000°30'5 8.3
2016-Jul-09 07:29N 36°41' W 000°24'7 7.7
2016-Jul-09 06:33N 36°42' W 000°15'16 8.0
2016-Jul-09 04:33N 36°44' E 000°05'9 8.7
2016-Jul-09 03:33N 36°46' E 000°16'10 8.6
2016-Jul-09 02:22N 36°47' E 000°28'7 8.5
2016-Jul-09 01:34N 36°48' E 000°37'17 8.5
2016-Jul-08 23:33N 36°51' E 000°58'8 8.4
2016-Jul-08 22:33N 36°53' E 001°08'8 8.5
2016-Jul-08 21:33N 36°54' E 001°19'8 8.2
2016-Jul-08 20:33N 36°55' E 001°29'  

Dump ship's entire track history